createdAt,value
2022-11-29T00:01:26.142Z,101363.63
2022-11-29T00:03:59.702Z,101361.38
2022-11-29T00:09:45.158Z,101357.34
2022-11-29T00:12:18.290Z,101356.56
2022-11-29T00:14:51.249Z,101367.59
2022-11-29T00:17:25.498Z,101362.06
2022-11-29T00:19:58.410Z,101369.59
2022-11-29T00:22:31.141Z,101365.19
2022-11-29T00:25:04.780Z,101373.44
2022-11-29T00:27:37.531Z,101366.59
2022-11-29T00:30:11.594Z,101367.66
2022-11-29T00:32:45.799Z,101369.28
2022-11-29T00:35:18.909Z,101368.50
2022-11-29T00:37:51.741Z,101367.97
2022-11-29T00:40:24.913Z,101367.09
2022-11-29T00:42:57.789Z,101374.06
2022-11-29T00:45:30.768Z,101377.84
2022-11-29T00:48:05.277Z,101382.81
2022-11-29T00:50:38.236Z,101379.22
2022-11-29T00:53:11.003Z,101388.66
2022-11-29T00:55:45.144Z,101389.38
2022-11-29T00:58:18.420Z,101391.19
2022-11-29T01:00:51.978Z,101391.75
2022-11-29T01:03:26.796Z,101391.75
2022-11-29T01:06:02.685Z,101392.47
2022-11-29T01:08:36.059Z,101388.38
2022-11-29T01:11:13.746Z,101389.06
2022-11-29T01:13:47.224Z,101395.09
2022-11-29T01:16:20.425Z,101398.66
2022-11-29T01:18:55.023Z,101396.25
2022-11-29T01:21:28.489Z,101398.41
2022-11-29T01:24:03.658Z,101398.84
2022-11-29T01:26:39.428Z,101398.06
2022-11-29T01:29:14.109Z,101396.00
2022-11-29T01:31:47.059Z,101399.75
2022-11-29T01:34:21.547Z,101394.78
2022-11-29T01:36:54.311Z,101401.13
2022-11-29T01:39:27.285Z,101399.09
2022-11-29T01:42:00.948Z,101401.59
2022-11-29T01:45:03.825Z,101400.25
2022-11-29T01:47:47.070Z,101407.66
2022-11-29T01:50:21.592Z,101408.88
2022-11-29T01:52:54.602Z,101409.34
2022-11-29T01:55:27.530Z,101411.03
2022-11-29T01:58:01.539Z,101410.59
2022-11-29T02:00:34.667Z,101413.56
2022-11-29T02:03:11.837Z,101423.47
2022-11-29T02:05:50.358Z,101423.69
2022-11-29T02:08:28.386Z,101424.38
2022-11-29T02:11:20.142Z,101424.28
2022-11-29T02:14:13.100Z,101436.81
2022-11-29T02:16:56.857Z,101428.75
2022-11-29T02:19:55.343Z,101434.06
2022-11-29T02:22:43.986Z,101433.38
2022-11-29T02:25:37.110Z,101431.78
2022-11-29T02:28:42.975Z,101427.78
2022-11-29T02:31:44.260Z,101438.72
2022-11-29T02:34:44.613Z,101445.34
2022-11-29T02:37:30.917Z,101452.06
2022-11-29T02:40:33.616Z,101456.50
2022-11-29T02:43:34.175Z,101459.81
2022-11-29T02:46:22.182Z,101458.78
2022-11-29T02:49:04.109Z,101470.19
2022-11-29T02:51:44.164Z,101464.47
2022-11-29T02:54:25.374Z,101466.06
2022-11-29T02:57:03.385Z,101469.59
2022-11-29T02:59:43.888Z,101469.25
2022-11-29T03:02:24.467Z,101474.97
2022-11-29T03:05:04.689Z,101479.56
2022-11-29T03:07:45.856Z,101476.91
2022-11-29T03:10:29.879Z,101476.13
2022-11-29T03:13:08.169Z,101480.19
2022-11-29T03:15:49.814Z,101474.09
2022-11-29T03:18:35.518Z,101487.75
2022-11-29T03:21:24.488Z,101489.53
2022-11-29T03:24:06.196Z,101490.69
2022-11-29T03:26:45.488Z,101484.88
2022-11-29T03:29:28.366Z,101487.28
2022-11-29T03:32:08.306Z,101497.31
2022-11-29T03:34:57.411Z,101492.53
2022-11-29T03:37:39.342Z,101499.47
2022-11-29T03:40:20.716Z,101502.53
2022-11-29T03:43:02.923Z,101505.50
2022-11-29T03:45:44.816Z,101505.84
2022-11-29T03:48:22.955Z,101508.13
2022-11-29T03:51:00.728Z,101509.38
2022-11-29T03:53:40.671Z,101515.53
2022-11-29T03:56:37.817Z,101516.91
2022-11-29T03:59:20.564Z,101519.19
2022-11-29T04:02:14.155Z,101527.19
2022-11-29T04:05:15.607Z,101523.06
2022-11-29T04:08:03.012Z,101524.66
2022-11-29T04:10:53.594Z,101521.72
2022-11-29T04:13:47.684Z,101525.25
2022-11-29T04:16:47.201Z,101531.97
2022-11-29T04:19:40.839Z,101535.63
2022-11-29T04:22:33.110Z,101536.88
2022-11-29T04:25:32.828Z,101534.03
2022-11-29T04:28:20.800Z,101535.84
2022-11-29T04:31:08.403Z,101538.13
2022-11-29T04:34:18.835Z,101534.25
2022-11-29T04:37:11.777Z,101544.50
2022-11-29T04:39:58.817Z,101554.03
2022-11-29T04:42:56.577Z,101560.91
2022-11-29T04:45:48.959Z,101554.09
2022-11-29T04:48:43.938Z,101549.06
2022-11-29T04:51:27.111Z,101549.88
2022-11-29T04:54:07.210Z,101554.53
2022-11-29T04:56:44.977Z,101555.88
2022-11-29T04:59:25.998Z,101564.66
2022-11-29T05:02:06.638Z,101552.25
2022-11-29T05:04:52.607Z,101552.25
2022-11-29T05:07:34.121Z,101557.47
2022-11-29T05:10:23.821Z,101566.91
2022-11-29T05:13:03.813Z,101572.28
2022-11-29T05:15:53.619Z,101576.63
2022-11-29T05:18:37.452Z,101571.13
2022-11-29T05:21:20.666Z,101577.84
2022-11-29T05:24:00.956Z,101581.19
2022-11-29T05:26:42.378Z,101583.50
2022-11-29T05:29:22.728Z,101584.13
2022-11-29T05:32:10.845Z,101587.19
2022-11-29T05:35:00.860Z,101580.34
2022-11-29T05:37:44.646Z,101597.34
2022-11-29T05:40:39.885Z,101601.91
2022-11-29T05:43:26.623Z,101606.25
2022-11-29T05:46:07.147Z,101607.16
2022-11-29T05:48:48.776Z,101615.09
2022-11-29T05:51:28.622Z,101619.13
2022-11-29T05:54:13.004Z,101619.91
2022-11-29T05:56:58.008Z,101619.91
2022-11-29T05:59:32.391Z,101627.88
2022-11-29T06:02:15.583Z,101623.00
2022-11-29T06:05:06.641Z,101626.19
2022-11-29T06:07:45.622Z,101632.22
2022-11-29T06:10:24.252Z,101629.25
2022-11-29T06:13:07.284Z,101642.00
2022-11-29T06:16:16.877Z,101643.34
2022-11-29T06:19:17.379Z,101646.56
2022-11-29T06:22:00.733Z,101653.63
2022-11-29T06:24:45.833Z,101650.44
2022-11-29T06:27:37.246Z,101656.13
2022-11-29T06:30:13.230Z,101652.31
2022-11-29T06:32:53.475Z,101653.03
2022-11-29T06:35:39.826Z,101662.25
2022-11-29T06:38:23.199Z,101666.72
2022-11-29T06:41:02.075Z,101667.31
2022-11-29T06:43:37.534Z,101671.72
2022-11-29T06:46:19.981Z,101676.66
2022-11-29T06:49:02.340Z,101679.97
2022-11-29T06:51:46.275Z,101679.88
2022-11-29T06:54:32.050Z,101687.28
2022-11-29T06:57:14.396Z,101695.22
2022-11-29T07:00:02.513Z,101698.06
2022-11-29T07:02:49.546Z,101693.81
2022-11-29T07:05:26.792Z,101697.28
2022-11-29T07:08:03.861Z,101706.00
2022-11-29T07:10:40.901Z,101701.81
2022-11-29T07:13:14.857Z,101706.50
2022-11-29T07:16:00.632Z,101707.88
2022-11-29T07:18:43.302Z,101711.16
2022-11-29T07:21:26.711Z,101713.41
2022-11-29T07:24:09.778Z,101708.81
2022-11-29T07:26:56.492Z,101723.41
2022-11-29T07:29:39.352Z,101720.69
2022-11-29T07:32:21.983Z,101718.81
2022-11-29T07:35:02.884Z,101731.16
2022-11-29T07:37:41.043Z,101731.47
2022-11-29T07:40:16.814Z,101733.13
2022-11-29T07:43:02.385Z,101742.28
2022-11-29T07:45:36.834Z,101742.94
2022-11-29T07:48:12.262Z,101749.34
2022-11-29T07:50:46.352Z,101752.25
2022-11-29T07:53:21.690Z,101755.28
2022-11-29T07:55:54.595Z,101757.72
2022-11-29T07:58:27.143Z,101760.19
2022-11-29T08:00:59.929Z,101761.13
2022-11-29T08:03:35.540Z,101761.13
2022-11-29T08:06:08.227Z,101767.53
2022-11-29T08:08:44.202Z,101765.84
2022-11-29T08:11:17.403Z,101766.06
2022-11-29T08:13:51.423Z,101763.72
2022-11-29T08:16:24.568Z,101762.28
2022-11-29T08:18:58.973Z,101768.38
2022-11-29T08:21:31.776Z,101766.31
2022-11-29T08:24:04.676Z,101768.09
2022-11-29T08:26:37.524Z,101766.13
2022-11-29T08:29:10.325Z,101771.47
2022-11-29T08:31:43.113Z,101771.72
2022-11-29T08:34:17.510Z,101772.41
2022-11-29T08:36:50.861Z,101779.59
2022-11-29T08:39:24.180Z,101781.59
2022-11-29T08:41:56.895Z,101786.53
2022-11-29T08:44:29.750Z,101786.94
2022-11-29T08:47:19.968Z,101797.03
2022-11-29T08:50:03.323Z,101807.31
2022-11-29T08:52:57.515Z,101810.88
2022-11-29T08:55:33.424Z,101813.69
2022-11-29T08:58:09.841Z,101810.69
2022-11-29T09:00:46.046Z,101816.75
2022-11-29T09:03:36.800Z,101822.09
2022-11-29T09:06:13.441Z,101818.25
2022-11-29T09:08:46.955Z,101823.03
2022-11-29T09:11:25.992Z,101826.53
2022-11-29T09:14:01.248Z,101829.72
2022-11-29T09:16:37.642Z,101834.41
2022-11-29T09:19:11.615Z,101836.31
2022-11-29T09:21:45.813Z,101846.13
2022-11-29T09:24:19.654Z,101852.00
2022-11-29T09:26:52.448Z,101855.53
2022-11-29T09:29:25.161Z,101855.53
2022-11-29T09:31:58.111Z,101855.75
2022-11-29T09:34:30.785Z,101860.00
2022-11-29T09:37:06.170Z,101857.63
2022-11-29T09:39:40.225Z,101863.22
2022-11-29T09:42:44.866Z,101861.94
2022-11-29T09:45:22.145Z,101867.88
2022-11-29T09:48:23.028Z,101874.28
2022-11-29T09:51:01.734Z,101879.75
2022-11-29T09:53:46.248Z,101870.88
2022-11-29T09:56:26.314Z,101878.72
2022-11-29T09:59:04.722Z,101880.50
2022-11-29T10:01:43.699Z,101879.19
2022-11-29T10:04:20.553Z,101880.25
2022-11-29T10:07:00.316Z,101877.38
2022-11-29T10:09:39.985Z,101871.25
2022-11-29T10:12:18.547Z,101872.16
2022-11-29T10:14:56.469Z,101879.13
2022-11-29T10:17:36.052Z,101878.44
2022-11-29T10:20:15.925Z,101875.84
2022-11-29T10:22:55.811Z,101871.94
2022-11-29T10:25:34.264Z,101877.06
2022-11-29T10:28:12.727Z,101883.03
2022-11-29T10:30:46.234Z,101884.75
2022-11-29T10:33:22.349Z,101876.06
2022-11-29T10:35:58.166Z,101885.94
2022-11-29T10:38:31.929Z,101888.25
2022-11-29T10:41:12.237Z,101879.94
2022-11-29T10:43:45.403Z,101883.72
2022-11-29T10:46:29.885Z,101881.00
2022-11-29T10:49:05.709Z,101884.31
2022-11-29T10:51:39.166Z,101888.06
2022-11-29T10:54:30.233Z,101887.31
2022-11-29T10:57:13.851Z,101890.75
2022-11-29T11:00:00.802Z,101885.75
2022-11-29T11:02:34.541Z,101882.88
2022-11-29T11:05:18.835Z,101890.63
2022-11-29T11:07:58.610Z,101894.97
2022-11-29T11:10:32.292Z,101897.81
2022-11-29T11:13:08.347Z,101900.91
2022-11-29T11:15:41.328Z,101903.66
2022-11-29T11:18:22.172Z,101899.22
2022-11-29T11:20:58.234Z,101901.38
2022-11-29T11:23:32.649Z,101903.47
2022-11-29T11:26:11.363Z,101907.47
2022-11-29T11:28:52.270Z,101909.41
2022-11-29T11:31:34.390Z,101906.09
2022-11-29T11:34:26.907Z,101909.63
2022-11-29T11:37:19.761Z,101911.22
2022-11-29T11:39:55.938Z,101912.63
2022-11-29T11:42:40.386Z,101916.25
2022-11-29T11:45:33.946Z,101915.59
2022-11-29T11:48:14.492Z,101917.28
2022-11-29T11:50:52.975Z,101918.09
2022-11-29T11:53:29.041Z,101926.09
2022-11-29T11:56:03.743Z,101930.22
2022-11-29T11:58:40.492Z,101928.19
2022-11-29T12:01:27.266Z,101931.84
2022-11-29T12:04:05.441Z,101937.09
2022-11-29T12:06:46.210Z,101937.44
2022-11-29T12:09:28.999Z,101935.84
2022-11-29T12:12:11.926Z,101943.03
2022-11-29T12:14:55.637Z,101949.09
2022-11-29T12:17:36.207Z,101943.25
2022-11-29T12:20:23.688Z,101952.53
2022-11-29T12:23:10.122Z,101943.38
2022-11-29T12:25:49.723Z,101947.94
2022-11-29T12:28:26.112Z,101957.66
2022-11-29T12:31:08.819Z,101954.00
2022-11-29T12:33:50.959Z,101950.69
2022-11-29T12:36:37.848Z,101957.41
2022-11-29T12:39:25.401Z,101960.50
2022-11-29T12:42:07.188Z,101962.53
2022-11-29T12:44:47.700Z,101967.22
2022-11-29T12:47:37.704Z,101968.00
2022-11-29T12:50:27.441Z,101967.09
2022-11-29T12:53:15.449Z,101962.66
2022-11-29T12:55:55.685Z,101972.50
2022-11-29T12:58:39.056Z,101963.09
2022-11-29T13:01:25.469Z,101971.78
2022-11-29T13:04:05.138Z,101965.19
2022-11-29T13:06:49.058Z,101963.81
2022-11-29T13:09:49.298Z,101956.72
2022-11-29T13:12:29.408Z,101954.66
2022-11-29T13:15:06.333Z,101961.22
2022-11-29T13:17:46.808Z,101961.31
2022-11-29T13:20:32.176Z,101960.16
2022-11-29T13:23:20.762Z,101960.84
2022-11-29T13:25:58.224Z,101962.09
2022-11-29T13:28:34.867Z,101952.97
2022-11-29T13:31:15.604Z,101951.25
2022-11-29T13:34:08.793Z,101952.41
2022-11-29T13:36:51.043Z,101954.00
2022-11-29T13:39:36.095Z,101962.91
2022-11-29T13:42:17.277Z,101960.38
2022-11-29T13:44:57.676Z,101955.13
2022-11-29T13:47:30.570Z,101968.16
2022-11-29T13:50:05.671Z,101961.50
2022-11-29T13:52:41.248Z,101970.41
2022-11-29T13:55:29.164Z,101962.97
2022-11-29T13:58:22.226Z,101969.59
2022-11-29T14:01:00.214Z,101970.09
2022-11-29T14:03:37.128Z,101968.00
2022-11-29T14:06:21.120Z,101966.72
2022-11-29T14:09:28.307Z,101968.78
2022-11-29T14:12:20.080Z,101971.41
2022-11-29T14:14:57.867Z,101970.81
2022-11-29T14:17:37.140Z,101978.63
2022-11-29T14:20:58.267Z,101975.41
2022-11-29T14:23:50.079Z,101981.81
2022-11-29T14:26:32.398Z,101971.97
2022-11-29T14:29:48.131Z,101974.28
2022-11-29T14:32:23.691Z,101981.63
2022-11-29T14:35:03.463Z,101975.88
2022-11-29T14:37:53.664Z,101973.16
2022-11-29T14:40:37.005Z,101974.31
2022-11-29T14:43:21.951Z,101982.00
2022-11-29T14:46:24.711Z,101984.75
2022-11-29T14:49:04.084Z,101983.91
2022-11-29T14:51:37.516Z,101981.53
2022-11-29T14:54:18.354Z,101988.53
2022-11-29T14:56:51.308Z,101980.97
2022-11-29T14:59:42.767Z,101993.09
2022-11-29T15:02:35.970Z,101987.38
2022-11-29T15:05:17.210Z,101994.00
2022-11-29T15:07:57.882Z,101999.28
2022-11-29T15:10:34.698Z,101995.59
2022-11-29T15:13:10.829Z,101999.25
2022-11-29T15:16:04.285Z,102001.91
2022-11-29T15:19:17.686Z,102002.94
2022-11-29T15:21:59.183Z,102003.75
2022-11-29T15:24:51.149Z,102008.44
2022-11-29T15:27:27.198Z,102010.81
2022-11-29T15:30:10.098Z,102004.97
2022-11-29T15:32:45.682Z,102003.38
2022-11-29T15:35:21.049Z,102004.53
2022-11-29T15:38:00.180Z,102003.38
2022-11-29T15:40:43.344Z,102011.63
2022-11-29T15:43:28.656Z,102007.16
2022-11-29T15:46:02.242Z,102002.50
2022-11-29T15:48:35.911Z,102014.94
2022-11-29T15:51:30.422Z,102013.34
2022-11-29T15:54:23.444Z,102018.03
2022-11-29T15:57:03.955Z,102018.81
2022-11-29T15:59:49.209Z,102018.56
2022-11-29T16:02:28.061Z,102018.66
2022-11-29T16:05:12.719Z,102011.53
2022-11-29T16:07:51.094Z,102019.56
2022-11-29T16:10:35.198Z,102021.84
2022-11-29T16:13:37.173Z,102019.66
2022-11-29T16:16:18.021Z,102020.91
2022-11-29T16:18:52.365Z,102024.31
2022-11-29T16:21:33.583Z,102022.69
2022-11-29T16:24:23.421Z,102032.19
2022-11-29T16:27:02.300Z,102020.41
2022-11-29T16:29:45.153Z,102025.34
2022-11-29T16:32:27.679Z,102024.53
2022-11-29T16:35:08.412Z,102029.66
2022-11-29T16:38:10.704Z,102036.25
2022-11-29T16:41:04.863Z,102030.88
2022-11-29T16:43:58.336Z,102034.41
2022-11-29T16:46:40.853Z,102035.53
2022-11-29T16:49:33.875Z,102033.78
2022-11-29T16:52:43.421Z,102034.88
2022-11-29T16:55:20.422Z,102041.75
2022-11-29T16:57:57.145Z,102038.69
2022-11-29T17:00:34.488Z,102043.97
2022-11-29T17:03:07.669Z,102040.88
2022-11-29T17:05:51.655Z,102037.09
2022-11-29T17:08:25.850Z,102041.09
2022-11-29T17:10:59.249Z,102044.41
2022-11-29T17:13:34.799Z,102054.38
2022-11-29T17:16:44.014Z,102051.00
2022-11-29T17:19:24.031Z,102051.78
2022-11-29T17:21:57.126Z,102047.50
2022-11-29T17:24:29.762Z,102055.59
2022-11-29T17:27:05.289Z,102062.47
2022-11-29T17:29:42.238Z,102063.00
2022-11-29T17:32:26.458Z,102064.31
2022-11-29T17:35:00.107Z,102063.53
2022-11-29T17:37:33.686Z,102066.25
2022-11-29T17:40:08.015Z,102070.47
2022-11-29T17:42:41.284Z,102067.25
2022-11-29T17:45:15.878Z,102076.75
2022-11-29T17:47:51.620Z,102072.72
2022-11-29T17:50:24.587Z,102077.53
2022-11-29T17:52:57.381Z,102087.81
2022-11-29T17:55:30.401Z,102075.00
2022-11-29T17:58:03.189Z,102079.28
2022-11-29T18:00:37.621Z,102080.91
2022-11-29T18:03:10.951Z,102082.97
2022-11-29T18:05:49.570Z,102083.47
2022-11-29T18:08:22.891Z,102077.28
2022-11-29T18:11:05.452Z,102082.75
2022-11-29T18:13:38.888Z,102089.81
2022-11-29T18:16:14.769Z,102085.94
2022-11-29T18:18:48.308Z,102090.00
2022-11-29T18:21:21.345Z,102098.22
2022-11-29T18:23:55.099Z,102095.34
2022-11-29T18:26:30.524Z,102104.81
2022-11-29T18:29:03.687Z,102103.06
2022-11-29T18:31:41.136Z,102103.38
2022-11-29T18:34:15.525Z,102105.88
2022-11-29T18:36:49.692Z,102111.03
2022-11-29T18:39:27.201Z,102111.97
2022-11-29T18:42:01.188Z,102120.38
2022-11-29T18:44:34.639Z,102116.69
2022-11-29T18:47:11.084Z,102123.78
2022-11-29T18:49:44.428Z,102125.38
2022-11-29T18:52:17.360Z,102122.34
2022-11-29T18:54:52.033Z,102120.88
2022-11-29T18:57:25.223Z,102127.13
2022-11-29T18:59:58.637Z,102126.69
2022-11-29T19:02:33.132Z,102126.97
2022-11-29T19:05:06.650Z,102132.91
2022-11-29T19:07:39.890Z,102135.13
2022-11-29T19:10:13.961Z,102133.25
2022-11-29T19:12:47.351Z,102135.00
2022-11-29T19:15:20.689Z,102138.88
2022-11-29T19:17:56.004Z,102138.03
2022-11-29T19:20:29.216Z,102142.53
2022-11-29T19:23:02.369Z,102143.22
2022-11-29T19:25:36.630Z,102146.88
2022-11-29T19:28:14.253Z,102142.38
2022-11-29T19:30:56.179Z,102143.19
2022-11-29T19:33:30.709Z,102143.19
2022-11-29T19:36:08.645Z,102144.66
2022-11-29T19:38:42.003Z,102153.50
2022-11-29T19:41:16.725Z,102160.06
2022-11-29T19:43:50.166Z,102158.31
2022-11-29T19:46:25.161Z,102162.66
2022-11-29T19:49:00.925Z,102170.84
2022-11-29T19:51:34.524Z,102166.97
2022-11-29T19:54:10.651Z,102169.75
2022-11-29T19:56:50.825Z,102163.59
2022-11-29T19:59:31.499Z,102171.63
2022-11-29T20:02:08.670Z,102169.22
2022-11-29T20:04:43.616Z,102171.63
2022-11-29T20:07:17.372Z,102163.47
2022-11-29T20:09:50.800Z,102170.97
2022-11-29T20:12:27.289Z,102178.03
2022-11-29T20:15:01.127Z,102179.81
2022-11-29T20:17:34.640Z,102178.81
2022-11-29T20:20:11.525Z,102182.50
2022-11-29T20:22:46.411Z,102184.59
2022-11-29T20:25:24.820Z,102186.75
2022-11-29T20:27:58.353Z,102180.59
2022-11-29T20:34:53.741Z,102186.06
2022-11-29T20:37:52.279Z,102189.47
2022-11-29T20:40:33.397Z,102197.50
2022-11-29T20:43:17.432Z,102198.00
2022-11-29T20:45:51.174Z,102196.69
2022-11-29T20:48:24.664Z,102191.38
2022-11-29T20:51:03.591Z,102195.22
2022-11-29T20:53:42.688Z,102192.97
2022-11-29T20:56:15.944Z,102201.03
2022-11-29T20:58:48.929Z,102194.13
2022-11-29T21:01:22.751Z,102202.66
2022-11-29T21:03:59.165Z,102210.06
2022-11-29T21:06:34.570Z,102201.66
2022-11-29T21:09:09.319Z,102200.06
2022-11-29T21:11:45.880Z,102204.59
2022-11-29T21:14:19.572Z,102198.91
2022-11-29T21:16:53.742Z,102201.88
2022-11-29T21:19:28.136Z,102196.38
2022-11-29T21:22:09.469Z,102205.53
2022-11-29T21:24:51.679Z,102196.69
2022-11-29T21:27:30.097Z,102196.00
2022-11-29T21:30:06.555Z,102193.66
2022-11-29T21:32:40.187Z,102192.81
2022-11-29T21:35:13.175Z,102198.41
2022-11-29T21:37:46.409Z,102194.41
2022-11-29T21:40:21.097Z,102201.03
2022-11-29T21:42:54.478Z,102208.56
2022-11-29T21:45:27.367Z,102200.53
2022-11-29T21:48:00.555Z,102210.03
2022-11-29T21:50:33.223Z,102210.16
2022-11-29T21:53:06.317Z,102209.38
2022-11-29T21:55:40.460Z,102203.59
2022-11-29T21:58:13.301Z,102208.56
2022-11-29T22:00:46.141Z,102212.28
2022-11-29T22:03:18.933Z,102216.00
2022-11-29T22:05:52.096Z,102207.75
2022-11-29T22:08:24.834Z,102207.13
2022-11-29T22:11:03.621Z,102212.94
2022-11-29T22:13:36.776Z,102213.09
2022-11-29T22:16:11.430Z,102210.69
2022-11-29T22:18:44.827Z,102209.69
2022-11-29T22:21:17.724Z,102209.22
2022-11-29T22:23:50.483Z,102211.47
2022-11-29T22:26:24.880Z,102210.97
2022-11-29T22:28:58.224Z,102220.03
2022-11-29T22:31:31.452Z,102206.97
2022-11-29T22:34:04.439Z,102209.69
2022-11-29T22:36:38.827Z,102216.19
2022-11-29T22:39:12.157Z,102212.81
2022-11-29T22:41:52.296Z,102221.31
2022-11-29T22:44:26.974Z,102214.59
2022-11-29T22:46:59.914Z,102212.03
2022-11-29T22:49:33.548Z,102214.91
2022-11-29T22:52:06.652Z,102218.47
2022-11-29T22:54:40.294Z,102221.50
2022-11-29T22:57:14.528Z,102225.66
2022-11-29T22:59:48.059Z,102226.00
2022-11-29T23:02:21.128Z,102218.63
2022-11-29T23:04:54.252Z,102222.47
2022-11-29T23:07:27.304Z,102228.41
2022-11-29T23:10:00.695Z,102223.09
2022-11-29T23:12:35.472Z,102225.19
2022-11-29T23:15:08.754Z,102224.88
2022-11-29T23:17:41.991Z,102225.38
2022-11-29T23:20:15.230Z,102228.56
2022-11-29T23:22:48.469Z,102224.41
2022-11-29T23:25:24.087Z,102224.88
2022-11-29T23:27:58.409Z,102226.34
2022-11-29T23:30:31.760Z,102219.75
2022-11-29T23:33:04.669Z,102224.41
2022-11-29T23:35:37.962Z,102224.06
2022-11-29T23:38:11.370Z,102221.50
2022-11-29T23:40:45.938Z,102221.84
2022-11-29T23:43:21.701Z,102223.25
2022-11-29T23:45:54.827Z,102225.38
2022-11-29T23:48:28.006Z,102227.91
2022-11-29T23:51:00.991Z,102233.28
2022-11-29T23:53:33.701Z,102235.22
2022-11-29T23:56:09.131Z,102235.66
2022-11-29T23:58:43.781Z,102233.41
